createdAt,value
2019-02-23T00:02:23.727Z,21.60
2019-02-23T00:04:52.148Z,20.43
2019-02-23T00:07:20.565Z,20.70
2019-02-23T00:09:49.242Z,19.80
2019-02-23T00:12:17.926Z,18.70
2019-02-23T00:14:46.325Z,19.47
2019-02-23T00:17:14.846Z,19.30
2019-02-23T00:19:43.220Z,20.00
2019-02-23T00:22:11.598Z,18.50
2019-02-23T00:24:40.227Z,18.33
2019-02-23T00:27:08.947Z,18.33
2019-02-23T00:29:37.329Z,19.20
2019-02-23T00:32:05.931Z,18.80
2019-02-23T00:34:34.594Z,19.47
2019-02-23T00:37:02.987Z,18.93
2019-02-23T00:39:31.445Z,19.33
2019-02-23T00:41:59.930Z,18.70
2019-02-23T00:44:28.695Z,18.33
2019-02-23T00:46:57.096Z,18.63
2019-02-23T00:49:35.929Z,18.33
2019-02-23T00:51:55.803Z,18.90
2019-02-23T00:54:24.211Z,18.77
2019-02-23T00:56:52.619Z,17.60
2019-02-23T00:59:21.455Z,18.73
2019-02-23T01:01:49.845Z,18.63
2019-02-23T01:04:18.235Z,17.80
2019-02-23T01:06:46.900Z,18.53
2019-02-23T01:09:15.373Z,17.30
2019-02-23T01:11:44.040Z,18.97
2019-02-23T01:14:12.442Z,19.30
2019-02-23T01:16:41.108Z,19.67
2019-02-23T01:19:09.619Z,19.43
2019-02-23T01:21:38.010Z,20.40
2019-02-23T01:24:06.503Z,19.97
2019-02-23T01:26:34.892Z,19.30
2019-02-23T01:29:03.608Z,20.33
2019-02-23T01:31:32.004Z,19.67
2019-02-23T01:34:00.806Z,20.47
2019-02-23T01:36:29.200Z,19.97
2019-02-23T01:38:57.667Z,20.40
2019-02-23T01:41:26.148Z,20.43
2019-02-23T01:43:54.541Z,19.20
2019-02-23T01:46:22.961Z,20.23
2019-02-23T01:48:51.368Z,20.03
2019-02-23T01:51:19.751Z,20.13
2019-02-23T01:53:48.454Z,20.57
2019-02-23T01:56:16.894Z,19.73
2019-02-23T01:58:45.589Z,21.03
2019-02-23T02:01:13.992Z,21.73
2019-02-23T02:03:42.386Z,22.10
2019-02-23T02:06:10.778Z,21.23
2019-02-23T02:08:39.190Z,20.50
2019-02-23T02:11:08.001Z,20.57
2019-02-23T02:13:36.392Z,20.77
2019-02-23T02:16:05.172Z,21.27
2019-02-23T02:18:33.578Z,20.53
2019-02-23T02:21:01.939Z,21.90
2019-02-23T02:23:30.611Z,20.73
2019-02-23T02:25:58.996Z,22.33
2019-02-23T02:28:27.378Z,22.37
2019-02-23T02:30:55.786Z,22.30
2019-02-23T02:33:24.313Z,22.07
2019-02-23T02:35:52.703Z,23.27
2019-02-23T02:38:21.101Z,22.83
2019-02-23T02:40:49.501Z,22.67
2019-02-23T02:43:17.887Z,22.93
2019-02-23T02:45:46.301Z,21.47
2019-02-23T02:48:15.017Z,22.47
2019-02-23T02:50:43.734Z,24.93
2019-02-23T02:53:12.131Z,23.13
2019-02-23T02:55:40.763Z,23.30
2019-02-23T02:58:09.174Z,23.20
2019-02-23T03:00:37.636Z,22.90
2019-02-23T03:03:06.056Z,22.20
2019-02-23T03:05:34.458Z,22.73
2019-02-23T03:08:02.851Z,21.97
2019-02-23T03:10:31.351Z,23.07
2019-02-23T03:12:59.735Z,22.13
2019-02-23T03:15:28.258Z,23.30
2019-02-23T03:17:56.725Z,23.77
2019-02-23T03:20:36.255Z,23.27
2019-02-23T03:22:55.853Z,23.90
2019-02-23T03:25:24.258Z,23.50
2019-02-23T03:27:52.690Z,22.90
2019-02-23T03:30:21.351Z,23.97
2019-02-23T03:32:49.785Z,23.33
2019-02-23T03:35:18.230Z,25.10
2019-02-23T03:37:46.631Z,22.73
2019-02-23T03:40:15.029Z,24.17
2019-02-23T03:42:43.436Z,24.23
2019-02-23T03:45:11.967Z,23.10
2019-02-23T03:47:40.362Z,23.97
2019-02-23T03:50:08.833Z,24.40
2019-02-23T03:52:37.401Z,25.53
2019-02-23T03:55:06.258Z,23.83
2019-02-23T03:57:34.661Z,25.10
2019-02-23T04:00:03.401Z,25.43
2019-02-23T04:02:32.135Z,24.07
2019-02-23T04:05:00.608Z,23.90
2019-02-23T04:07:29.069Z,23.60
2019-02-23T04:09:57.801Z,24.67
2019-02-23T04:12:26.185Z,25.20
2019-02-23T04:14:54.659Z,24.90
2019-02-23T04:17:23.694Z,24.37
2019-02-23T04:19:52.088Z,27.47
2019-02-23T04:22:20.586Z,25.83
2019-02-23T04:24:49.286Z,25.20
2019-02-23T04:27:17.677Z,25.53
2019-02-23T04:29:47.001Z,25.90
2019-02-23T04:32:15.541Z,24.80
2019-02-23T04:34:43.930Z,24.20
2019-02-23T04:37:12.323Z,24.97
2019-02-23T04:39:41.021Z,24.97
2019-02-23T04:42:09.450Z,25.40
2019-02-23T04:44:37.827Z,25.80
2019-02-23T04:47:06.231Z,25.40
2019-02-23T04:49:34.612Z,24.37
2019-02-23T04:52:03.017Z,22.97
2019-02-23T04:54:34.446Z,22.60
2019-02-23T04:57:02.970Z,24.70
2019-02-23T04:59:31.329Z,23.30
2019-02-23T05:01:59.784Z,24.80
2019-02-23T05:04:28.189Z,24.43
2019-02-23T05:06:56.603Z,24.67
2019-02-23T05:09:25.031Z,24.33
2019-02-23T05:11:53.443Z,23.60
2019-02-23T05:14:21.833Z,23.63
2019-02-23T05:16:50.223Z,23.07
2019-02-23T05:19:18.653Z,22.13
2019-02-23T05:21:47.028Z,22.37
2019-02-23T05:24:15.722Z,23.23
2019-02-23T05:26:44.107Z,21.90
2019-02-23T05:29:12.738Z,22.73
2019-02-23T05:31:41.451Z,22.07
2019-02-23T05:34:10.059Z,22.40
2019-02-23T05:36:38.441Z,22.43
2019-02-23T05:39:07.644Z,21.70
2019-02-23T05:41:36.045Z,22.60
2019-02-23T05:44:04.480Z,21.60
2019-02-23T05:46:32.875Z,21.77
2019-02-23T05:49:01.719Z,21.90
2019-02-23T05:51:38.315Z,22.73
2019-02-23T05:54:00.232Z,21.10
2019-02-23T05:56:28.645Z,22.67
2019-02-23T05:58:57.308Z,21.70
2019-02-23T06:01:25.993Z,20.90
2019-02-23T06:03:54.387Z,20.63
2019-02-23T06:06:22.979Z,21.17
2019-02-23T06:08:51.364Z,21.50
2019-02-23T06:11:19.787Z,20.13
2019-02-23T06:13:48.170Z,21.50
2019-02-23T06:16:16.839Z,21.80
2019-02-23T06:18:45.232Z,20.83
2019-02-23T06:21:13.612Z,20.63
2019-02-23T06:23:42.143Z,21.10
2019-02-23T06:26:10.629Z,21.20
2019-02-23T06:28:39.282Z,20.90
2019-02-23T06:31:07.683Z,20.13
2019-02-23T06:33:36.082Z,20.90
2019-02-23T06:36:04.480Z,22.77
2019-02-23T06:38:33.226Z,21.27
2019-02-23T06:41:01.678Z,20.77
2019-02-23T06:43:30.185Z,21.60
2019-02-23T06:45:58.581Z,21.30
2019-02-23T06:48:26.973Z,19.77
2019-02-23T06:50:55.355Z,20.13
2019-02-23T06:53:23.806Z,19.80
2019-02-23T06:55:52.213Z,18.80
2019-02-23T06:58:20.671Z,19.80
2019-02-23T07:00:49.078Z,20.43
2019-02-23T07:03:17.471Z,18.70
2019-02-23T07:05:45.882Z,19.40
2019-02-23T07:08:14.282Z,17.90
2019-02-23T07:10:42.868Z,19.83
2019-02-23T07:13:11.270Z,18.77
2019-02-23T07:15:39.647Z,19.73
2019-02-23T07:18:08.039Z,19.73
2019-02-23T07:20:43.682Z,19.87
2019-02-23T07:23:06.927Z,19.60
2019-02-23T07:25:35.579Z,19.73
2019-02-23T07:28:03.967Z,21.10
2019-02-23T07:30:32.604Z,19.87
2019-02-23T07:33:01.049Z,19.80
2019-02-23T07:35:29.712Z,18.00
2019-02-23T07:37:58.166Z,18.10
2019-02-23T07:40:26.556Z,20.67
2019-02-23T07:42:54.969Z,19.17
2019-02-23T07:45:23.358Z,19.83
2019-02-23T07:47:51.737Z,19.83
2019-02-23T07:50:20.756Z,19.60
2019-02-23T07:52:49.156Z,18.67
2019-02-23T07:55:17.544Z,20.90
2019-02-23T07:57:45.950Z,20.33
2019-02-23T08:00:15.102Z,20.00
2019-02-23T08:02:43.488Z,20.50
2019-02-23T08:05:11.998Z,18.77
2019-02-23T08:07:40.413Z,18.53
2019-02-23T08:10:11.127Z,20.10
2019-02-23T08:12:39.761Z,18.77
2019-02-23T08:15:10.677Z,18.33
2019-02-23T08:17:39.083Z,19.17
2019-02-23T08:20:13.234Z,19.53
2019-02-23T08:22:41.639Z,19.47
2019-02-23T08:25:12.240Z,20.83
2019-02-23T08:27:40.626Z,19.03
2019-02-23T08:30:14.081Z,18.13
2019-02-23T08:32:42.697Z,18.00
2019-02-23T08:35:11.155Z,19.23
2019-02-23T08:37:39.652Z,19.67
2019-02-23T08:40:18.816Z,18.63
2019-02-23T08:42:47.486Z,21.13
2019-02-23T08:45:16.180Z,19.13
2019-02-23T08:47:44.587Z,20.47
2019-02-23T08:50:16.352Z,19.23
2019-02-23T08:52:49.294Z,19.83
2019-02-23T08:55:15.090Z,19.00
2019-02-23T08:57:43.802Z,18.60
2019-02-23T09:00:17.102Z,17.73
2019-02-23T09:02:45.774Z,18.40
2019-02-23T09:05:14.860Z,18.27
2019-02-23T09:07:43.264Z,18.83
2019-02-23T09:10:13.865Z,19.03
2019-02-23T09:12:42.570Z,18.60
2019-02-23T09:15:12.193Z,18.47
2019-02-23T09:17:40.866Z,18.30
2019-02-23T09:20:11.121Z,19.53
2019-02-23T09:22:39.706Z,17.60
2019-02-23T09:25:11.658Z,17.80
2019-02-23T09:27:40.054Z,17.67
2019-02-23T09:30:14.059Z,17.83
2019-02-23T09:32:42.456Z,17.77
2019-02-23T09:35:12.726Z,17.40
2019-02-23T09:37:41.758Z,18.60
2019-02-23T09:40:12.920Z,15.67
2019-02-23T09:42:41.569Z,17.27
2019-02-23T09:45:12.076Z,18.17
2019-02-23T09:47:41.023Z,18.43
2019-02-23T09:50:09.448Z,18.10
2019-02-23T09:52:38.494Z,18.23
2019-02-23T09:55:08.370Z,18.80
2019-02-23T09:57:36.992Z,17.47
2019-02-23T10:00:08.825Z,17.30
2019-02-23T10:02:37.279Z,16.70
2019-02-23T10:05:07.016Z,16.40
2019-02-23T10:07:35.400Z,17.53
2019-02-23T10:10:04.579Z,17.27
2019-02-23T10:12:33.239Z,17.13
2019-02-23T10:15:01.770Z,18.23
2019-02-23T10:17:30.247Z,16.17
2019-02-23T10:19:58.632Z,17.30
2019-02-23T10:22:27.029Z,16.70
2019-02-23T10:24:55.777Z,16.47
2019-02-23T10:27:24.244Z,17.30
2019-02-23T10:29:52.688Z,16.33
2019-02-23T10:32:21.239Z,15.30
2019-02-23T10:34:50.031Z,16.50
2019-02-23T10:37:18.477Z,15.10
2019-02-23T10:39:46.952Z,17.30
2019-02-23T10:42:16.030Z,15.00
2019-02-23T10:44:44.429Z,15.53
2019-02-23T10:47:14.970Z,14.73
2019-02-23T10:49:43.352Z,14.90
2019-02-23T10:52:11.737Z,15.50
2019-02-23T10:54:40.197Z,15.93
2019-02-23T10:57:08.592Z,16.17
2019-02-23T10:59:37.089Z,15.80
2019-02-23T11:02:05.783Z,14.70
2019-02-23T11:04:34.174Z,15.23
2019-02-23T11:07:02.830Z,14.80
2019-02-23T11:09:32.460Z,15.47
2019-02-23T11:12:00.917Z,15.47
2019-02-23T11:14:29.422Z,15.80
2019-02-23T11:16:57.813Z,14.70
2019-02-23T11:19:26.485Z,15.07
2019-02-23T11:21:54.872Z,16.00
2019-02-23T11:24:23.339Z,14.57
2019-02-23T11:26:52.002Z,14.60
2019-02-23T11:29:20.477Z,15.50
2019-02-23T11:31:48.931Z,14.37
2019-02-23T11:34:17.481Z,14.47
2019-02-23T11:36:45.876Z,15.03
2019-02-23T11:39:14.652Z,15.07
2019-02-23T11:41:43.037Z,14.20
2019-02-23T11:44:11.421Z,15.17
2019-02-23T11:46:40.162Z,14.67
2019-02-23T11:49:08.789Z,14.47
2019-02-23T11:51:38.245Z,14.13
2019-02-23T11:54:06.814Z,14.63
2019-02-23T11:56:35.351Z,14.97
2019-02-23T11:59:03.751Z,15.10
2019-02-23T12:01:32.157Z,15.07
2019-02-23T12:04:00.579Z,15.33
2019-02-23T12:06:28.958Z,13.87
2019-02-23T12:08:57.508Z,14.03
2019-02-23T12:11:26.393Z,14.20
2019-02-23T12:13:55.433Z,14.53
2019-02-23T12:16:24.040Z,14.87
2019-02-23T12:18:52.700Z,15.00
2019-02-23T12:21:21.162Z,14.57
2019-02-23T12:23:49.584Z,13.73
2019-02-23T12:26:18.044Z,14.63
2019-02-23T12:28:46.426Z,13.90
2019-02-23T12:31:14.824Z,14.00
2019-02-23T12:33:43.853Z,13.93
2019-02-23T12:36:12.803Z,13.93
2019-02-23T12:38:41.188Z,13.80
2019-02-23T12:41:09.607Z,14.20
2019-02-23T12:43:38.315Z,15.17
2019-02-23T12:46:06.995Z,14.23
2019-02-23T12:48:35.790Z,13.23
2019-02-23T12:51:04.216Z,12.53
2019-02-23T12:53:32.639Z,12.73
2019-02-23T12:56:01.158Z,14.00
2019-02-23T12:58:29.630Z,14.30
2019-02-23T13:00:58.028Z,14.60
2019-02-23T13:03:26.408Z,13.40
2019-02-23T13:05:55.052Z,13.50
2019-02-23T13:08:23.474Z,15.07
2019-02-23T13:10:53.217Z,13.00
2019-02-23T13:13:42.151Z,14.03
2019-02-23T13:16:22.676Z,14.57
2019-02-23T13:19:13.700Z,13.10
2019-02-23T13:21:45.141Z,14.80
2019-02-23T13:24:28.181Z,13.20
2019-02-23T13:27:00.964Z,13.20
2019-02-23T13:29:49.009Z,13.43
2019-02-23T13:32:43.269Z,13.57
2019-02-23T13:35:24.131Z,13.17
2019-02-23T13:38:01.827Z,14.30
2019-02-23T13:40:39.298Z,13.67
2019-02-23T13:43:10.749Z,13.87
2019-02-23T13:45:45.193Z,13.43
2019-02-23T13:48:44.899Z,13.63
2019-02-23T13:51:51.187Z,13.63
2019-02-23T13:54:38.394Z,15.30
2019-02-23T13:57:08.209Z,14.03
2019-02-23T13:59:45.499Z,14.43
2019-02-23T14:02:35.060Z,12.90
2019-02-23T14:05:18.561Z,14.23
2019-02-23T14:08:07.950Z,14.30
2019-02-23T14:11:05.106Z,13.80
2019-02-23T14:13:48.694Z,13.60
2019-02-23T14:16:23.038Z,12.80
2019-02-23T14:18:54.740Z,13.97
2019-02-23T14:21:44.931Z,14.63
2019-02-23T14:24:25.497Z,13.57
2019-02-23T14:27:08.707Z,14.53
2019-02-23T14:29:43.253Z,14.83
2019-02-23T14:32:17.464Z,13.20
2019-02-23T14:34:54.955Z,14.80
2019-02-23T14:37:32.179Z,13.17
2019-02-23T14:40:12.634Z,13.03
2019-02-23T14:43:00.464Z,12.90
2019-02-23T14:45:34.606Z,13.87
2019-02-23T14:48:21.028Z,14.70
2019-02-23T14:51:10.736Z,12.33
2019-02-23T14:54:01.519Z,12.90
2019-02-23T14:56:38.760Z,12.43
2019-02-23T14:59:13.146Z,11.70
2019-02-23T15:01:50.281Z,11.23
2019-02-23T15:04:27.396Z,11.37
2019-02-23T15:06:58.858Z,10.90
2019-02-23T15:09:56.044Z,11.10
2019-02-23T15:12:33.547Z,11.30
2019-02-23T15:15:31.985Z,11.40
2019-02-23T15:18:09.466Z,10.40
2019-02-23T15:20:49.779Z,10.77
2019-02-23T15:23:21.241Z,11.97
2019-02-23T15:26:16.447Z,12.20
2019-02-23T15:29:00.119Z,11.03
2019-02-23T15:31:48.233Z,12.00
2019-02-23T15:34:44.077Z,11.03
2019-02-23T15:37:30.519Z,10.77
2019-02-23T15:40:10.608Z,10.57
2019-02-23T15:43:03.130Z,10.70
2019-02-23T15:45:43.655Z,11.70
2019-02-23T15:48:21.588Z,12.10
2019-02-23T15:50:50.040Z,12.37
2019-02-23T15:53:18.426Z,12.97
2019-02-23T15:55:47.129Z,12.10
2019-02-23T15:58:15.809Z,12.90
2019-02-23T16:00:44.439Z,11.87
2019-02-23T16:03:12.900Z,12.07
2019-02-23T16:05:41.308Z,11.30
2019-02-23T16:08:09.695Z,12.40
2019-02-23T16:10:38.089Z,12.57
2019-02-23T16:13:06.520Z,13.10
2019-02-23T16:15:34.965Z,11.80
2019-02-23T16:18:03.761Z,13.63
2019-02-23T16:20:32.394Z,12.70
2019-02-23T16:23:00.780Z,13.20
2019-02-23T16:25:38.013Z,12.60
2019-02-23T16:27:59.736Z,12.50
2019-02-23T16:30:28.143Z,11.87
2019-02-23T16:32:56.522Z,12.23
2019-02-23T16:35:25.182Z,11.40
2019-02-23T16:37:53.585Z,11.67
2019-02-23T16:40:22.239Z,12.37
2019-02-23T16:42:50.968Z,12.17
2019-02-23T16:45:19.353Z,13.17
2019-02-23T16:47:47.999Z,11.63
2019-02-23T16:50:17.665Z,13.17
2019-02-23T16:52:46.105Z,13.23
2019-02-23T16:55:14.490Z,12.57
2019-02-23T16:57:43.252Z,13.73
2019-02-23T17:00:11.936Z,13.67
2019-02-23T17:02:40.327Z,13.57
2019-02-23T17:05:09.265Z,12.80
2019-02-23T17:07:37.891Z,14.80
2019-02-23T17:10:07.921Z,13.23
2019-02-23T17:12:36.355Z,14.90
2019-02-23T17:15:06.309Z,13.80
2019-02-23T17:17:34.816Z,13.43
2019-02-23T17:20:03.526Z,13.73
2019-02-23T17:22:31.972Z,13.10
2019-02-23T17:25:00.481Z,12.63
2019-02-23T17:27:36.303Z,13.53
2019-02-23T17:29:59.349Z,14.10
2019-02-23T17:32:28.034Z,14.20
2019-02-23T17:34:56.437Z,14.10
2019-02-23T17:37:24.819Z,13.57
2019-02-23T17:39:53.242Z,13.83
2019-02-23T17:42:28.047Z,13.20
2019-02-23T17:44:52.324Z,13.57
2019-02-23T17:47:20.725Z,13.53
2019-02-23T17:49:49.668Z,13.00
2019-02-23T17:52:18.073Z,14.00
2019-02-23T17:54:46.456Z,14.10
2019-02-23T17:57:15.017Z,13.20
2019-02-23T17:59:43.480Z,13.13
2019-02-23T18:02:11.943Z,15.40
2019-02-23T18:04:40.653Z,66.03
2019-02-23T18:07:09.439Z,22.30
2019-02-23T18:09:37.829Z,16.20
2019-02-23T18:12:06.609Z,44.60
2019-02-23T18:14:35.024Z,99.20
2019-02-23T18:17:03.413Z,61.27
2019-02-23T18:19:31.834Z,61.30
2019-02-23T18:22:00.527Z,49.30
2019-02-23T18:24:29.219Z,21.20
2019-02-23T18:26:57.622Z,70.37
2019-02-23T18:29:26.009Z,80.33
2019-02-23T18:31:54.642Z,73.63
2019-02-23T18:34:23.057Z,32.30
2019-02-23T18:36:51.461Z,18.20
2019-02-23T18:39:20.106Z,18.30
2019-02-23T18:41:48.504Z,15.20
2019-02-23T18:44:16.910Z,16.33
2019-02-23T18:46:45.295Z,25.47
2019-02-23T18:49:14.030Z,39.97
2019-02-23T18:51:42.431Z,41.13
2019-02-23T18:54:11.095Z,20.77
2019-02-23T18:56:39.492Z,46.67
2019-02-23T18:59:07.886Z,85.30
2019-02-23T19:01:36.534Z,90.10
2019-02-23T19:04:05.024Z,41.70
2019-02-23T19:06:33.414Z,40.10
2019-02-23T19:09:02.093Z,63.70
2019-02-23T19:11:30.498Z,66.53
2019-02-23T19:13:59.250Z,18.00
2019-02-23T19:16:27.867Z,16.90
2019-02-23T19:18:56.257Z,20.70
2019-02-23T19:21:24.911Z,35.77
2019-02-23T19:23:53.726Z,22.93
2019-02-23T19:26:23.453Z,24.17
2019-02-23T19:28:51.872Z,17.67
2019-02-23T19:31:20.278Z,19.57
2019-02-23T19:33:48.761Z,35.40
2019-02-23T19:36:17.803Z,18.80
2019-02-23T19:38:46.218Z,14.90
2019-02-23T19:41:15.315Z,14.50
2019-02-23T19:43:43.715Z,15.23
2019-02-23T19:46:12.103Z,14.57
2019-02-23T19:48:40.500Z,14.23
2019-02-23T19:51:09.723Z,16.40
2019-02-23T19:53:39.460Z,16.73
2019-02-23T19:56:08.148Z,14.27
2019-02-23T19:58:37.879Z,15.10
2019-02-23T20:01:06.317Z,14.43
2019-02-23T20:03:35.128Z,15.20
2019-02-23T20:06:03.527Z,14.57
2019-02-23T20:08:31.928Z,14.77
2019-02-23T20:11:00.308Z,13.90
2019-02-23T20:13:29.085Z,14.77
2019-02-23T20:15:57.702Z,16.10
2019-02-23T20:18:26.120Z,15.20
2019-02-23T20:20:54.516Z,15.33
2019-02-23T20:23:22.903Z,16.00
2019-02-23T20:25:51.303Z,16.30
2019-02-23T20:28:19.776Z,16.13
2019-02-23T20:30:48.202Z,16.40
2019-02-23T20:33:16.758Z,15.80
2019-02-23T20:35:45.389Z,15.60
2019-02-23T20:38:13.773Z,14.53
2019-02-23T20:40:42.258Z,14.83
2019-02-23T20:43:10.751Z,15.70
2019-02-23T20:45:39.411Z,16.50
2019-02-23T20:48:07.816Z,16.53
2019-02-23T20:50:36.226Z,16.60
2019-02-23T20:53:04.743Z,15.47
2019-02-23T20:55:33.181Z,14.87
2019-02-23T20:58:01.583Z,15.10
2019-02-23T21:00:31.037Z,15.10
2019-02-23T21:02:59.444Z,15.53
2019-02-23T21:05:27.823Z,16.00
2019-02-23T21:07:56.219Z,16.43
2019-02-23T21:10:25.154Z,15.63
2019-02-23T21:12:54.037Z,15.47
2019-02-23T21:15:22.488Z,15.77
2019-02-23T21:17:51.135Z,16.00
2019-02-23T21:20:19.519Z,16.40
2019-02-23T21:22:48.169Z,16.10
2019-02-23T21:25:16.631Z,15.33
2019-02-23T21:27:45.485Z,15.27
2019-02-23T21:30:14.234Z,15.90
2019-02-23T21:32:42.916Z,15.40
2019-02-23T21:35:11.300Z,16.33
2019-02-23T21:37:39.702Z,16.63
2019-02-23T21:40:12.198Z,15.57
2019-02-23T21:42:40.828Z,16.53
2019-02-23T21:45:10.741Z,16.27
2019-02-23T21:47:39.097Z,16.67
2019-02-23T21:50:10.700Z,16.13
2019-02-23T21:52:39.116Z,16.57
2019-02-23T21:55:08.055Z,17.03
2019-02-23T21:57:36.738Z,16.53
2019-02-23T22:00:07.771Z,16.17
2019-02-23T22:02:36.181Z,15.23
2019-02-23T22:05:12.050Z,16.47
2019-02-23T22:07:36.400Z,16.20
2019-02-23T22:10:07.793Z,16.20
2019-02-23T22:12:36.190Z,16.60
2019-02-23T22:15:06.429Z,17.40
2019-02-23T22:17:35.148Z,16.43
2019-02-23T22:20:04.275Z,16.90
2019-02-23T22:22:32.929Z,16.33
2019-02-23T22:25:01.331Z,16.50
2019-02-23T22:27:31.584Z,16.23
2019-02-23T22:30:00.056Z,16.73
2019-02-23T22:32:28.674Z,16.13
2019-02-23T22:34:57.051Z,16.40
2019-02-23T22:37:25.685Z,17.00
2019-02-23T22:39:54.301Z,15.90
2019-02-23T22:42:22.698Z,17.17
2019-02-23T22:44:51.086Z,16.90
2019-02-23T22:47:19.473Z,15.97
2019-02-23T22:49:47.873Z,16.30
2019-02-23T22:52:16.351Z,17.17
2019-02-23T22:54:45.021Z,16.93
2019-02-23T22:57:13.421Z,16.63
2019-02-23T22:59:42.616Z,17.20
2019-02-23T23:02:11.282Z,16.30
2019-02-23T23:04:39.685Z,16.40
2019-02-23T23:07:08.346Z,17.00
2019-02-23T23:09:36.752Z,15.97
2019-02-23T23:12:05.348Z,16.47
2019-02-23T23:14:33.757Z,16.97
2019-02-23T23:17:02.141Z,17.03
2019-02-23T23:19:30.960Z,16.80
2019-02-23T23:21:59.353Z,15.13
2019-02-23T23:24:28.231Z,16.43
2019-02-23T23:26:56.635Z,16.20
2019-02-23T23:29:25.341Z,17.63
2019-02-23T23:31:53.731Z,16.07
2019-02-23T23:34:22.347Z,16.07
2019-02-23T23:36:50.752Z,16.67
2019-02-23T23:39:19.137Z,16.47
2019-02-23T23:41:47.535Z,16.63
2019-02-23T23:44:15.933Z,16.13
2019-02-23T23:46:44.311Z,17.33
2019-02-23T23:49:12.727Z,16.00
2019-02-23T23:51:41.108Z,17.07
2019-02-23T23:54:09.498Z,16.20
2019-02-23T23:56:38.181Z,16.07
2019-02-23T23:59:06.577Z,15.60
